Weather at Zorgo Airport

Public forecast

Using degrees Celsius for public forecast. Weather courtesy of forecast.io.

Closest aviation weather report (METAR) to Zorgo Airport

Closest report is Ouagadougou Airport, 52.9 nm (98.0 km) W. Retrieved 2020/11/25 21:00 UTC (37 minutes ago):

DFFD 252100Z 32002KT CAVOK 24/10 Q1012 NOSIG

Closest aviation forecast (TAF) to Zorgo Airport

Closest forecast is Ouagadougou Airport, 52.9 nm (98.0 km) W. Retrieved 2020/11/25 18:00 UTC (4 hours ago):

TAF DFFD 251700Z 2518/2624 36008KT 8000 NSC TEMPO 2518/2521 4000 HZ TEMPO 2606/2610 3500 HZ